Time;durP1;ratioP1;P1;durP2;ratioP2;P2;SDS_P1;SDS_P2;PMS_P1;PMS_P2;Temp;Humidity;BMP_temperature;BMP_pressure;BME280_temperature;BME280_humidity;BME280_pressure;Samples;Min_cycle;Max_cycle;Signal;HPM_P1;HPM_P2
2024/03/27 00:00:44;;;;;;;25.65;13.40;;;;;;;3.59;83.94;100157.11;1712393;84;21708;-75
2024/03/27 00:03:12;;;;;;;26.15;12.68;;;;;;;3.58;83.98;100161.69;1712427;84;21194;-74
2024/03/27 00:05:41;;;;;;;24.45;12.75;;;;;;;3.57;83.95;100164.05;1712543;84;21186;-74
2024/03/27 00:08:09;;;;;;;24.95;12.98;;;;;;;3.53;84.14;100160.45;1712906;83;21124;-75
2024/03/27 00:10:37;;;;;;;24.70;13.03;;;;;;;3.52;84.31;100152.84;1712423;84;21131;-75
2024/03/27 00:13:06;;;;;;;22.30;11.03;;;;;;;3.52;84.28;100158.77;1712602;84;21685;-74
2024/03/27 00:15:34;;;;;;;18.92;9.73;;;;;;;3.48;84.36;100167.70;1712733;84;21144;-75
2024/03/27 00:18:03;;;;;;;21.07;10.00;;;;;;;3.46;84.43;100162.95;1712566;84;21176;-73
2024/03/27 00:20:31;;;;;;;17.07;9.83;;;;;;;3.42;84.45;100175.95;1712732;84;21132;-73
2024/03/27 00:23:00;;;;;;;17.90;9.63;;;;;;;3.39;84.55;100166.80;1712572;84;21626;-74
2024/03/27 00:25:29;;;;;;;15.63;9.15;;;;;;;3.36;84.67;100184.71;1712675;84;21425;-74
2024/03/27 00:27:57;;;;;;;15.45;9.05;;;;;;;3.34;84.81;100182.66;1713131;84;21183;-75
2024/03/27 00:30:25;;;;;;;16.62;9.95;;;;;;;3.35;84.89;100182.16;1712632;84;21600;-74
2024/03/27 00:32:55;;;;;;;18.45;9.95;;;;;;;3.33;84.98;100186.37;1712903;84;21155;-74
2024/03/27 00:35:23;;;;;;;18.05;10.10;;;;;;;3.34;85.13;100191.29;1718215;83;21670;-74
2024/03/27 00:37:54;;;;;;;20.57;10.55;;;;;;;3.31;85.34;100182.13;1722093;82;21174;-73
2024/03/27 00:40:23;;;;;;;15.48;9.70;;;;;;;3.29;85.50;100182.28;1722087;83;21130;-74
2024/03/27 00:42:51;;;;;;;19.12;9.60;;;;;;;3.29;85.59;100186.34;1722123;83;21198;-75
2024/03/27 00:45:20;;;;;;;20.30;10.98;;;;;;;3.30;85.51;100196.67;1722060;83;21182;-74
2024/03/27 00:47:48;;;;;;;22.52;12.05;;;;;;;3.26;85.47;100189.36;1722003;83;21175;-74
2024/03/27 00:50:17;;;;;;;23.73;13.48;;;;;;;3.21;85.63;100202.48;1722104;83;21194;-74
2024/03/27 00:52:47;;;;;;;24.70;13.30;;;;;;;3.18;85.73;100198.23;1722210;83;21150;-74
2024/03/27 00:55:15;;;;;;;25.08;14.28;;;;;;;3.15;85.83;100197.69;1722053;83;21186;-74
2024/03/27 00:57:44;;;;;;;24.00;13.10;;;;;;;3.13;85.84;100199.70;1722094;83;21155;-75
2024/03/27 01:00:18;;;;;;;26.45;13.50;;;;;;;3.10;85.79;100213.55;1722136;83;21203;-72
2024/03/27 01:02:47;;;;;;;25.65;14.58;;;;;;;3.05;85.94;100208.59;1722024;83;21152;-74
2024/03/27 01:05:16;;;;;;;22.55;14.30;;;;;;;3.02;86.13;100204.84;1722038;83;21202;-74
2024/03/27 01:07:45;;;;;;;23.35;13.62;;;;;;;3.03;86.29;100202.48;1722242;83;21149;-74
2024/03/27 01:10:14;;;;;;;20.40;12.50;;;;;;;3.03;86.41;100201.63;1722212;83;21195;-74
2024/03/27 01:12:43;;;;;;;20.17;11.25;;;;;;;3.02;86.28;100195.88;1721958;83;21147;-75
2024/03/27 01:15:12;;;;;;;18.30;11.25;;;;;;;2.99;86.28;100201.59;1722043;83;21617;-74
2024/03/27 01:17:42;;;;;;;18.23;10.88;;;;;;;2.96;86.31;100201.91;1721943;83;21676;-73
2024/03/27 01:20:12;;;;;;;17.80;10.78;;;;;;;2.92;86.55;100200.51;1722163;83;21147;-74
2024/03/27 01:22:41;;;;;;;19.27;10.70;;;;;;;2.91;86.83;100205.07;1722038;83;21175;-75
2024/03/27 01:25:12;;;;;;;18.02;10.03;;;;;;;2.89;87.11;100207.58;1722210;83;21203;-74
2024/03/27 01:27:40;;;;;;;18.62;10.30;;;;;;;2.87;87.25;100213.14;1722035;83;21182;-75
2024/03/27 01:30:09;;;;;;;18.62;10.10;;;;;;;2.85;87.45;100209.74;1722307;83;21574;-75
2024/03/27 01:32:37;;;;;;;22.58;12.18;;;;;;;2.86;87.67;100213.65;1721956;83;21138;-76
2024/03/27 01:35:07;;;;;;;20.62;10.68;;;;;;;2.90;87.70;100216.05;1718051;82;21128;-75
2024/03/27 01:37:36;;;;;;;19.15;10.65;;;;;;;2.90;87.61;100220.95;1710177;84;21187;-74
2024/03/27 01:40:06;;;;;;;20.23;11.28;;;;;;;2.87;87.64;100223.97;1710250;84;21156;-74
2024/03/27 01:42:35;;;;;;;19.45;10.88;;;;;;;2.86;87.59;100225.83;1710267;84;21179;-74
2024/03/27 01:45:04;;;;;;;25.20;13.40;;;;;;;2.81;87.52;100225.43;1724068;83;21111;-75
2024/03/27 01:47:33;;;;;;;28.87;13.50;;;;;;;2.79;87.60;100232.00;1704843;83;21143;-75
2024/03/27 01:50:03;;;;;;;24.52;13.55;;;;;;;2.78;87.63;100235.20;1726092;83;21135;-74
2024/03/27 01:52:33;;;;;;;28.92;14.28;;;;;;;2.77;87.64;100240.27;1725987;83;21131;-74
2024/03/27 01:55:01;;;;;;;29.82;14.53;;;;;;;2.76;87.56;100240.42;1725865;83;21156;-74
2024/03/27 01:57:31;;;;;;;29.40;13.62;;;;;;;2.76;87.52;100239.91;1726150;83;21606;-75
2024/03/27 01:59:59;;;;;;;23.10;11.45;;;;;;;2.75;87.32;100242.77;1725980;83;21151;-72
2024/03/27 02:02:28;;;;;;;21.55;10.90;;;;;;;2.71;87.34;100243.58;1725943;83;21673;-74
2024/03/27 02:04:56;;;;;;;22.22;11.28;;;;;;;2.69;87.39;100244.73;1726002;83;21194;-75
2024/03/27 02:07:25;;;;;;;22.75;11.75;;;;;;;2.67;87.51;100248.09;1725941;83;21594;-75
2024/03/27 02:09:53;;;;;;;24.15;12.37;;;;;;;2.61;87.82;100246.84;1726033;83;21163;-74
2024/03/27 02:12:22;;;;;;;24.92;12.70;;;;;;;2.61;88.12;100240.58;1725956;83;21622;-74
2024/03/27 02:14:50;;;;;;;24.75;12.20;;;;;;;2.63;88.23;100241.28;1725870;83;21195;-74
2024/03/27 02:17:18;;;;;;;22.32;11.08;;;;;;;2.64;88.33;100243.83;1725940;83;21628;-75
2024/03/27 02:19:48;;;;;;;18.07;10.28;;;;;;;2.66;88.33;100248.59;1725894;83;21135;-76
2024/03/27 02:22:17;;;;;;;17.73;10.65;;;;;;;2.64;88.23;100247.03;1725903;83;21154;-74
2024/03/27 02:24:47;;;;;;;24.47;11.80;;;;;;;2.59;88.25;100251.52;1726075;83;21111;-75
2024/03/27 02:27:15;;;;;;;51.28;19.42;;;;;;;2.58;88.28;100255.22;1725873;83;21127;-75
2024/03/27 02:29:44;;;;;;;70.80;24.90;;;;;;;2.58;88.31;100249.80;1726108;83;21126;-74
2024/03/27 02:32:12;;;;;;;67.92;25.35;;;;;;;2.56;88.27;100265.34;1725932;83;21139;-74
2024/03/27 02:34:41;;;;;;;63.05;21.65;;;;;;;2.54;88.30;100257.87;1726139;83;21116;-75
2024/03/27 02:37:09;;;;;;;51.02;20.02;;;;;;;2.51;88.32;100259.02;1730596;83;21150;-75
2024/03/27 02:39:37;;;;;;;46.25;19.00;;;;;;;2.51;88.43;100262.23;1732209;83;21675;-74
2024/03/27 02:42:06;;;;;;;47.70;18.40;;;;;;;2.52;88.48;100258.52;1733281;83;21103;-75
2024/03/27 02:44:34;;;;;;;40.15;17.35;;;;;;;2.52;88.52;100264.78;1733217;83;21206;-76
2024/03/27 02:47:02;;;;;;;38.17;15.70;;;;;;;2.51;88.54;100256.81;1733124;83;21146;-74
2024/03/27 02:49:31;;;;;;;33.85;15.75;;;;;;;2.49;88.49;100261.52;1733144;83;21121;-74
2024/03/27 02:51:59;;;;;;;32.60;15.53;;;;;;;2.46;88.46;100265.88;1733378;83;21135;-74
2024/03/27 02:54:27;;;;;;;36.80;15.93;;;;;;;2.44;88.49;100263.83;1733153;83;21697;-75
2024/03/27 02:56:56;;;;;;;33.75;15.08;;;;;;;2.44;88.55;100266.03;1733185;83;21150;-73
2024/03/27 02:59:24;;;;;;;28.70;14.70;;;;;;;2.45;88.58;100261.47;1733166;83;21651;-74
2024/03/27 03:01:53;;;;;;;24.52;12.33;;;;;;;2.41;88.54;100266.83;1733111;83;21107;-76
2024/03/27 03:04:21;;;;;;;24.15;13.05;;;;;;;2.38;88.50;100263.07;1733172;83;21598;-73
2024/03/27 03:06:50;;;;;;;25.92;13.30;;;;;;;2.36;88.56;100261.02;1733147;83;21178;-74
2024/03/27 03:09:19;;;;;;;23.20;12.05;;;;;;;2.35;88.63;100259.31;1733176;83;21103;-75
2024/03/27 03:11:48;;;;;;;23.20;11.00;;;;;;;2.34;88.66;100266.57;1733105;83;21205;-74
2024/03/27 03:14:16;;;;;;;22.80;12.05;;;;;;;2.35;88.64;100266.07;1733162;83;21127;-74
2024/03/27 03:16:44;;;;;;;22.75;11.18;;;;;;;2.33;88.61;100263.52;1733267;83;21146;-73
2024/03/27 03:19:12;;;;;;;20.17;11.68;;;;;;;2.34;88.57;100263.86;1733152;83;21270;-74
2024/03/27 03:21:41;;;;;;;21.27;11.33;;;;;;;2.36;88.58;100261.02;1733136;83;21611;-75
2024/03/27 03:24:09;;;;;;;20.25;11.43;;;;;;;2.37;88.62;100264.92;1733338;83;21154;-75
2024/03/27 03:26:38;;;;;;;20.27;10.72;;;;;;;2.38;88.60;100263.07;1733236;83;21616;-75
2024/03/27 03:29:06;;;;;;;22.17;10.78;;;;;;;2.39;88.55;100269.67;1733254;83;21170;-74
2024/03/27 03:31:35;;;;;;;20.52;10.55;;;;;;;2.37;88.51;100271.68;1733270;83;21135;-73
2024/03/27 03:34:04;;;;;;;19.87;10.78;;;;;;;2.32;88.58;100272.62;1733258;83;21581;-74
2024/03/27 03:36:32;;;;;;;20.62;11.33;;;;;;;2.28;88.67;100273.92;1730410;83;21163;-75
2024/03/27 03:39:00;;;;;;;20.92;11.60;;;;;;;2.24;88.82;100267.11;1730187;83;21190;-73
2024/03/27 03:41:29;;;;;;;22.02;11.80;;;;;;;2.24;88.97;100275.21;1729986;83;21151;-75
2024/03/27 03:43:57;;;;;;;22.50;11.73;;;;;;;2.23;89.05;100278.42;1730013;83;21582;-75
2024/03/27 03:46:26;;;;;;;18.20;10.13;;;;;;;2.20;89.01;100281.91;1730010;83;21151;-75
2024/03/27 03:48:54;;;;;;;16.87;10.30;;;;;;;2.16;89.04;100275.09;1730344;83;21127;-75
2024/03/27 03:51:22;;;;;;;21.40;10.88;;;;;;;2.13;89.07;100293.81;1730148;83;21135;-75
2024/03/27 03:53:51;;;;;;;19.17;10.65;;;;;;;2.09;89.13;100287.00;1730192;83;21174;-75
2024/03/27 03:56:19;;;;;;;19.12;10.45;;;;;;;2.11;89.18;100297.16;1730117;83;21100;-75
2024/03/27 03:58:48;;;;;;;17.50;10.30;;;;;;;2.10;89.20;100307.62;1730078;83;21171;-74
2024/03/27 04:01:16;;;;;;;22.42;10.60;;;;;;;2.11;89.25;100303.91;1730030;83;21159;-74
2024/03/27 04:03:45;;;;;;;19.55;10.32;;;;;;;2.13;89.30;100306.47;1721710;83;21099;-74
2024/03/27 04:06:13;;;;;;;16.10;9.45;;;;;;;2.15;89.26;100309.88;1699468;84;21123;-75
2024/03/27 04:08:42;;;;;;;18.50;9.38;;;;;;;2.13;89.27;100305.97;1735692;83;21127;-75
2024/03/27 04:11:11;;;;;;;18.57;9.85;;;;;;;2.10;89.23;100297.30;1729955;83;21154;-75
2024/03/27 04:13:39;;;;;;;22.32;9.83;;;;;;;2.06;89.26;100299.45;1730020;83;21154;-74
2024/03/27 04:16:09;;;;;;;19.57;10.43;;;;;;;2.07;89.42;100298.45;1730101;83;21131;-75
2024/03/27 04:18:38;;;;;;;20.05;9.55;;;;;;;2.09;89.53;100296.95;1730047;83;21147;-74
2024/03/27 04:21:06;;;;;;;16.12;9.18;;;;;;;2.11;89.58;100291.75;1730414;83;21146;-75
2024/03/27 04:23:35;;;;;;;18.17;9.48;;;;;;;2.11;89.59;100297.66;1730128;83;21154;-75
2024/03/27 04:26:04;;;;;;;20.55;10.10;;;;;;;2.12;89.66;100299.36;1730067;83;21162;-75
2024/03/27 04:28:35;;;;;;;20.48;10.28;;;;;;;2.13;89.69;100305.13;1730357;83;21178;-75
2024/03/27 04:31:05;;;;;;;22.17;12.45;;;;;;;2.11;89.73;100305.27;1730036;83;21139;-75
2024/03/27 04:33:34;;;;;;;20.17;11.70;;;;;;;2.13;89.81;100305.97;1730252;83;21166;-75
2024/03/27 04:36:03;;;;;;;19.27;11.93;;;;;;;2.16;89.83;100308.38;1732202;82;21118;-75
2024/03/27 04:38:32;;;;;;;23.42;12.13;;;;;;;2.19;89.92;100312.14;1740710;82;21111;-75
2024/03/27 04:41:01;;;;;;;23.62;11.25;;;;;;;2.22;90.07;100305.59;1737273;82;21591;-73
2024/03/27 04:43:30;;;;;;;19.48;11.33;;;;;;;2.27;90.22;100302.45;1733542;83;21161;-74
2024/03/27 04:45:59;;;;;;;21.25;11.40;;;;;;;2.33;90.28;100296.45;1733147;83;21190;-74
2024/03/27 04:48:27;;;;;;;25.75;13.55;;;;;;;2.38;90.26;100293.66;1701609;83;21162;-74
2024/03/27 04:50:56;;;;;;;23.60;12.75;;;;;;;2.40;90.25;100298.42;1733393;83;21612;-74
2024/03/27 04:53:24;;;;;;;26.68;12.63;;;;;;;2.42;90.29;100298.27;1733283;83;21142;-75
2024/03/27 04:55:56;;;;;;;25.72;13.15;;;;;;;2.45;90.46;100297.97;1733622;83;21126;-74
2024/03/27 04:58:25;;;;;;;25.17;12.98;;;;;;;2.49;90.57;100300.73;1733075;83;21161;-74
2024/03/27 05:00:53;;;;;;;27.75;13.78;;;;;;;2.51;90.60;100300.94;1733171;83;21656;-75
2024/03/27 05:03:21;;;;;;;22.13;12.80;;;;;;;2.51;90.66;100288.77;1733289;83;21615;-75
2024/03/27 05:05:50;;;;;;;24.72;12.45;;;;;;;2.55;90.84;100286.62;1733174;83;21186;-74
2024/03/27 05:08:18;;;;;;;21.90;13.20;;;;;;;2.61;90.92;100288.76;1733347;83;21590;-74
2024/03/27 05:10:47;;;;;;;30.20;14.10;;;;;;;2.66;91.04;100286.45;1733115;83;21577;-74
2024/03/27 05:13:16;;;;;;;28.83;14.23;;;;;;;2.73;91.16;100288.91;1733150;83;21591;-75
2024/03/27 05:15:44;;;;;;;32.42;15.85;;;;;;;2.79;91.23;100286.11;1733289;83;21123;-74
2024/03/27 05:18:13;;;;;;;29.77;15.48;;;;;;;2.85;91.32;100282.30;1733206;83;21175;-74
2024/03/27 05:20:41;;;;;;;29.12;14.50;;;;;;;2.91;91.44;100278.13;1701565;83;21150;-75
2024/03/27 05:23:10;;;;;;;30.05;14.20;;;;;;;3.01;91.53;100283.48;1733361;83;21131;-74
2024/03/27 05:25:41;;;;;;;31.37;15.05;;;;;;;3.09;91.48;100288.48;1702302;83;21178;-74
2024/03/27 05:28:10;;;;;;;35.23;16.87;;;;;;;3.16;91.35;100290.08;1702834;83;21202;-74
2024/03/27 05:30:38;;;;;;;37.80;17.30;;;;;;;3.21;91.28;100278.29;1701652;83;21154;-74
2024/03/27 05:33:07;;;;;;;39.03;18.77;;;;;;;3.29;91.25;100278.91;1733318;83;21185;-74
2024/03/27 05:35:36;;;;;;;35.25;18.15;;;;;;;3.38;91.22;100277.98;1733394;83;21143;-74
2024/03/27 05:38:04;;;;;;;36.77;17.23;;;;;;;3.45;91.23;100275.84;1730090;83;21205;-73
2024/03/27 05:40:32;;;;;;;39.65;17.32;;;;;;;3.55;91.27;100283.89;1730070;83;21155;-75
2024/03/27 05:43:01;;;;;;;37.33;18.87;;;;;;;3.65;91.25;100296.00;1730175;83;21200;-74
2024/03/27 05:45:30;;;;;;;41.23;17.75;;;;;;;3.73;91.15;100294.72;1730118;83;21146;-74
2024/03/27 05:47:58;;;;;;;34.67;18.25;;;;;;;3.80;91.05;100297.15;1730178;83;21163;-75
2024/03/27 05:50:28;;;;;;;40.78;18.32;;;;;;;3.88;91.05;100295.86;1729854;83;21520;-75
2024/03/27 05:52:57;;;;;;;32.33;16.37;;;;;;;3.98;91.03;100298.00;1730236;83;21512;-75
2024/03/27 05:55:27;;;;;;;34.30;16.80;;;;;;;4.08;91.01;100303.33;1730230;83;21131;-73
2024/03/27 05:57:56;;;;;;;35.78;16.67;;;;;;;4.20;91.03;100312.91;1729987;83;21158;-74
2024/03/27 06:00:24;;;;;;;31.68;15.48;;;;;;;4.31;91.02;100311.28;1729959;83;21149;-75
2024/03/27 06:02:52;;;;;;;31.35;15.18;;;;;;;4.41;90.95;100320.67;1730179;83;21127;-76
2024/03/27 06:05:21;;;;;;;27.60;15.05;;;;;;;4.51;90.92;100321.41;1729871;83;21143;-76
2024/03/27 06:07:50;;;;;;;33.65;15.13;;;;;;;4.63;90.82;100321.50;1730258;83;21139;-74
2024/03/27 06:10:19;;;;;;;30.30;15.65;;;;;;;4.73;90.70;100320.88;1730069;83;21153;-74
2024/03/27 06:12:47;;;;;;;24.75;13.30;;;;;;;4.83;90.51;100314.47;1730194;83;21166;-75
2024/03/27 06:15:16;;;;;;;28.17;15.08;;;;;;;4.94;90.29;100319.10;1729975;83;21598;-75
2024/03/27 06:17:45;;;;;;;22.10;12.23;;;;;;;5.04;89.97;100313.54;1730116;83;21234;-76
2024/03/27 06:20:15;;;;;;;19.25;8.90;;;;;;;5.13;89.65;100315.27;1729983;83;21167;-75
2024/03/27 06:22:44;;;;;;;15.78;7.03;;;;;;;5.24;89.03;100325.01;1721850;83;21676;-75
2024/03/27 06:25:12;;;;;;;15.15;7.58;;;;;;;5.32;88.21;100325.88;1735606;83;21598;-74
2024/03/27 06:27:40;;;;;;;14.30;7.30;;;;;;;5.44;87.37;100328.28;1730014;83;21162;-75
2024/03/27 06:30:12;;;;;;;14.05;5.62;;;;;;;5.53;86.47;100327.28;1730032;83;21221;-74
2024/03/27 06:32:41;;;;;;;11.65;5.70;;;;;;;5.62;85.41;100333.92;1730105;83;21616;-75
2024/03/27 06:35:11;;;;;;;7.15;4.58;;;;;;;5.70;84.07;100327.65;1730109;83;21154;-75
2024/03/27 06:37:39;;;;;;;10.60;5.65;;;;;;;5.77;82.80;100324.59;1729972;82;21171;-75
2024/03/27 06:40:09;;;;;;;6.75;3.83;;;;;;;5.86;81.27;100333.13;1730277;83;21551;-74
2024/03/27 06:42:39;;;;;;;8.88;4.85;;;;;;;5.94;79.85;100325.01;1729944;83;21178;-75
2024/03/27 06:45:09;;;;;;;10.63;5.22;;;;;;;6.00;78.19;100324.84;1729955;83;21127;-75
2024/03/27 06:47:39;;;;;;;10.70;5.22;;;;;;;6.06;77.27;100317.36;1729777;83;21151;-75
2024/03/27 06:50:10;;;;;;;10.65;4.90;;;;;;;6.13;75.97;100320.24;1730034;83;21135;-74
2024/03/27 06:52:39;;;;;;;9.80;5.35;;;;;;;6.21;75.04;100325.67;1729932;83;21680;-74
2024/03/27 06:55:07;;;;;;;12.43;5.45;;;;;;;6.27;74.34;100320.91;1729964;83;21574;-76
2024/03/27 06:57:36;;;;;;;12.93;6.22;;;;;;;6.32;73.35;100322.60;1730064;83;21110;-75
2024/03/27 07:00:09;;;;;;;11.35;6.83;;;;;;;6.37;71.88;100327.02;1731697;80;21719;-80
2024/03/27 07:02:38;;;;;;;15.75;7.58;;;;;;;6.41;71.53;100322.93;1727597;83;21157;-79
2024/03/27 07:05:08;;;;;;;15.03;7.22;;;;;;;6.48;71.28;100323.09;1726060;83;21134;-80
2024/03/27 07:07:37;;;;;;;20.12;7.75;;;;;;;6.55;70.58;100326.34;1725956;83;21177;-80
2024/03/27 07:10:05;;;;;;;17.98;8.03;;;;;;;6.60;70.03;100332.11;1703833;83;21220;-80
2024/03/27 07:12:37;;;;;;;13.50;7.65;;;;;;;6.69;69.54;100330.22;1726061;83;21155;-78
2024/03/27 07:15:07;;;;;;;9.83;6.20;;;;;;;6.74;68.65;100324.24;1726314;83;21113;-79
2024/03/27 07:17:36;;;;;;;11.85;6.20;;;;;;;6.77;67.76;100325.25;1726114;83;21195;-79
2024/03/27 07:20:06;;;;;;;12.18;6.37;;;;;;;6.81;67.49;100326.09;1706633;81;21184;-78
2024/03/27 07:22:35;;;;;;;14.33;6.83;;;;;;;6.85;67.68;100328.80;1720695;81;21197;-78
2024/03/27 07:25:04;;;;;;;17.65;8.80;;;;;;;7.08;70.93;100322.06;1746927;81;21117;-79
2024/03/27 07:27:34;;;;;;;19.12;9.38;;;;;;;7.26;68.29;100317.23;1765983;81;21125;-78
2024/03/27 07:30:03;;;;;;;18.17;9.50;;;;;;;7.30;67.01;100326.76;1791381;80;21100;-78
2024/03/27 07:32:32;;;;;;;18.35;8.95;;;;;;;7.30;66.38;100319.95;1784494;80;21117;-77
2024/03/27 07:35:00;;;;;;;18.60;8.28;;;;;;;7.35;65.89;100321.28;1759055;80;21117;-78
2024/03/27 07:37:30;;;;;;;25.27;11.45;;;;;;;7.36;65.12;100317.53;1764631;80;21141;-79
2024/03/27 07:39:59;;;;;;;21.10;8.20;;;;;;;7.37;65.15;100317.86;1758276;81;21089;-76
2024/03/27 07:42:28;;;;;;;14.63;7.72;;;;;;;7.39;64.94;100313.08;1758427;81;21126;-78
2024/03/27 07:44:56;;;;;;;15.68;7.35;;;;;;;7.43;64.45;100313.91;1758495;81;21141;-78
2024/03/27 07:47:25;;;;;;;14.87;6.85;;;;;;;7.47;63.77;100310.31;1727599;81;21125;-78
2024/03/27 07:49:54;;;;;;;12.75;7.35;;;;;;;7.50;63.49;100308.07;1758606;81;21181;-78
2024/03/27 07:52:22;;;;;;;12.37;7.12;;;;;;;7.52;63.48;100305.16;1727369;81;21133;-79
2024/03/27 07:54:52;;;;;;;14.50;7.40;;;;;;;7.56;63.81;100299.17;1760445;81;21185;-78
2024/03/27 07:57:21;;;;;;;12.40;5.70;;;;;;;7.60;63.95;100295.56;1760201;81;21200;-79
2024/03/27 07:59:50;;;;;;;8.90;4.72;;;;;;;7.74;64.43;100300.75;1760139;81;21148;-79
2024/03/27 08:02:19;;;;;;;9.68;5.35;;;;;;;8.12;63.01;100295.69;1760098;81;21129;-79
2024/03/27 08:04:47;;;;;;;17.65;6.72;;;;;;;8.55;62.38;100295.48;1760160;80;21140;-79
2024/03/27 08:07:15;;;;;;;13.30;6.70;;;;;;;9.11;60.75;100289.03;1758466;81;21137;-83
2024/03/27 08:09:50;;;;;;;12.18;5.60;;;;;;;9.63;58.38;100287.95;1758354;81;21184;-84
2024/03/27 08:12:19;;;;;;;6.53;4.33;;;;;;;10.06;56.63;100287.45;1758613;81;21118;-84
2024/03/27 08:14:50;;;;;;;6.40;3.98;;;;;;;10.52;55.55;100289.77;1752320;81;21188;-85
2024/03/27 08:17:19;;;;;;;7.85;4.10;;;;;;;11.00;52.27;100289.84;1760058;81;21149;-86
2024/03/27 08:19:48;;;;;;;12.82;4.90;;;;;;;11.43;51.30;100287.73;1758792;81;21145;-83
2024/03/27 08:22:17;;;;;;;7.92;3.95;;;;;;;11.81;50.58;100279.02;1758857;81;21105;-81
2024/03/27 08:24:46;;;;;;;9.25;4.42;;;;;;;12.19;49.60;100288.88;1727397;81;21646;-82
2024/03/27 08:27:14;;;;;;;10.50;4.05;;;;;;;12.62;48.01;100275.55;1758557;81;21153;-83
2024/03/27 08:29:44;;;;;;;9.00;4.28;;;;;;;12.89;46.27;100277.70;1748505;81;21125;-83
2024/03/27 08:32:13;;;;;;;9.20;3.47;;;;;;;13.04;45.75;100274.73;1730057;83;21213;-84
2024/03/27 08:34:42;;;;;;;6.97;3.92;;;;;;;13.21;44.95;100266.34;1730041;83;21565;-84
2024/03/27 08:37:10;;;;;;;9.88;4.87;;;;;;;13.43;44.61;100269.62;1729792;82;21378;-84
2024/03/27 08:39:40;;;;;;;11.80;6.20;;;;;;;13.67;44.08;100259.23;1697684;83;21113;-85
2024/03/27 08:42:09;;;;;;;8.78;4.40;;;;;;;13.83;42.46;100255.11;1721373;83;21125;-82
2024/03/27 08:44:39;;;;;;;9.58;3.95;;;;;;;13.93;41.31;100261.81;1729955;83;21149;-76
2024/03/27 08:47:08;;;;;;;6.00;3.62;;;;;;;14.06;42.94;100255.36;1729807;83;21577;-76
2024/03/27 08:49:37;;;;;;;8.43;3.85;;;;;;;14.40;44.63;100255.41;1729976;83;21161;-76
2024/03/27 08:52:06;;;;;;;10.10;5.40;;;;;;;14.64;43.80;100252.88;1697375;83;21137;-75
2024/03/27 08:54:35;;;;;;;14.07;6.12;;;;;;;14.81;43.33;100244.31;1730219;83;21557;-85
2024/03/27 08:57:04;;;;;;;7.30;4.95;;;;;;;14.84;40.31;100258.48;1730177;83;21133;-82
2024/03/27 08:59:35;;;;;;;9.70;5.22;;;;;;;14.64;39.49;100246.83;1730143;83;21615;-85
2024/03/27 09:02:04;;;;;;;12.55;4.55;;;;;;;14.36;38.31;100240.93;1730228;83;21145;-86
2024/03/27 09:04:35;;;;;;;7.17;3.90;;;;;;;14.02;38.96;100245.86;1730139;83;21133;-83
2024/03/27 09:07:03;;;;;;;6.00;3.47;;;;;;;13.82;38.95;100245.16;1729827;83;21564;-82
2024/03/27 09:09:32;;;;;;;8.03;3.33;;;;;;;13.56;38.46;100248.91;1730110;83;21157;-80
2024/03/27 09:12:00;;;;;;;6.15;3.80;;;;;;;13.22;38.17;100244.11;1729834;83;21209;-84
2024/03/27 09:14:29;;;;;;;7.10;3.15;;;;;;;12.91;39.09;100234.34;1729919;83;21173;-76
2024/03/27 09:16:58;;;;;;;9.13;4.25;;;;;;;12.71;39.26;100241.28;1730033;83;21169;-81
2024/03/27 09:19:26;;;;;;;8.70;3.00;;;;;;;12.48;39.63;100243.13;1730083;83;21624;-83
2024/03/27 09:21:55;;;;;;;6.58;3.45;;;;;;;12.33;40.45;100237.83;1730279;83;21260;-84
2024/03/27 09:24:24;;;;;;;9.45;3.58;;;;;;;12.33;40.94;100239.73;1730337;83;21137;-83
2024/03/27 09:26:53;;;;;;;6.95;3.75;;;;;;;12.29;40.98;100242.06;1729944;83;21129;-83
2024/03/27 09:29:21;;;;;;;9.00;3.72;;;;;;;12.18;41.63;100244.61;1758555;81;21180;-80
2024/03/27 09:31:50;;;;;;;7.35;3.10;;;;;;;12.10;42.43;100242.92;1768162;81;21161;-82
2024/03/27 09:34:18;;;;;;;5.65;3.12;;;;;;;12.00;41.42;100245.24;1736819;81;21595;-83
2024/03/27 09:36:47;;;;;;;4.67;3.05;;;;;;;11.81;40.89;100238.69;1768082;81;21125;-83
2024/03/27 09:39:17;;;;;;;5.70;3.17;;;;;;;11.63;41.61;100237.86;1729194;81;21102;-85
2024/03/27 09:41:46;;;;;;;8.73;3.75;;;;;;;11.58;42.28;100234.89;1764112;81;21146;-84
2024/03/27 09:44:15;;;;;;;5.80;3.30;;;;;;;11.65;42.84;100242.61;1764087;81;21573;-85
2024/03/27 09:46:44;;;;;;;6.87;3.47;;;;;;;11.70;43.25;100228.27;1764152;81;21534;-87
2024/03/27 09:49:14;;;;;;;8.45;3.50;;;;;;;11.72;43.04;100231.15;1764190;81;21565;-85
2024/03/27 09:52:06;;;;;;;6.70;3.60;;;;;;;11.67;43.28;100226.78;1763972;81;21150;-86
2024/03/27 09:54:35;;;;;;;8.00;3.62;;;;;;;11.65;42.84;100227.52;1709511;83;21169;-84
2024/03/27 09:57:04;;;;;;;6.97;3.67;;;;;;;11.61;43.62;100222.12;1696722;84;21168;-86
2024/03/27 09:59:33;;;;;;;5.90;3.25;;;;;;;11.62;43.77;100221.60;1718709;83;21161;-88
2024/03/27 10:02:04;;;;;;;7.17;2.85;;;;;;;11.62;43.51;100214.74;1725292;83;21118;-85
2024/03/27 10:04:33;;;;;;;6.58;3.08;;;;;;;11.59;43.67;100220.13;1725164;83;21185;-86
2024/03/27 10:07:07;;;;;;;5.20;3.10;;;;;;;11.60;43.55;100232.79;1725232;83;21182;-87
2024/03/27 10:09:34;;;;;;;6.53;2.83;;;;;;;11.55;43.26;100230.35;1725418;82;21118;-87
2024/03/27 10:12:03;;;;;;;8.83;3.42;;;;;;;11.51;43.85;100219.47;1716060;83;21150;-88
2024/03/27 10:14:31;;;;;;;5.20;3.12;;;;;;;11.50;44.00;100230.98;1725675;82;21129;-83
2024/03/27 10:17:00;;;;;;;8.28;3.47;;;;;;;11.49;43.97;100227.07;1725235;83;21169;-84
2024/03/27 10:19:29;;;;;;;9.00;3.20;;;;;;;11.44;43.79;100227.16;1725851;83;21153;-88
2024/03/27 10:21:58;;;;;;;3.72;2.60;;;;;;;11.46;43.95;100224.22;1725576;83;21122;-86
2024/03/27 10:24:27;;;;;;;4.70;2.90;;;;;;;11.48;43.93;100224.85;1725637;83;21205;-86
2024/03/27 10:26:55;;;;;;;4.35;2.80;;;;;;;11.53;44.00;100229.19;1725615;83;21153;-86
2024/03/27 10:29:25;;;;;;;5.25;2.90;;;;;;;11.56;43.03;100219.70;1697316;83;21177;-86
2024/03/27 10:31:56;;;;;;;5.08;2.85;;;;;;;11.53;43.17;100222.33;1728584;81;21156;-86
2024/03/27 10:34:24;;;;;;;5.35;2.80;;;;;;;11.49;42.80;100213.35;1693250;85;21174;-87
2024/03/27 10:36:53;;;;;;;5.62;2.87;;;;;;;11.50;43.36;100212.30;1726383;83;21113;-85
2024/03/27 10:39:22;;;;;;;4.08;2.85;;;;;;;11.51;43.12;100214.83;1725406;83;21113;-85
2024/03/27 10:41:51;;;;;;;4.03;2.60;;;;;;;11.49;43.33;100210.08;1725074;83;21812;-86
2024/03/27 10:44:20;;;;;;;5.83;3.00;;;;;;;11.44;43.47;100205.22;1725409;81;21654;-78
2024/03/27 10:46:49;;;;;;;5.78;2.90;;;;;;;11.36;43.94;100206.78;1725222;83;21113;-87
2024/03/27 10:49:19;;;;;;;4.70;3.00;;;;;;;11.34;44.80;100201.19;1725003;83;21577;-85
2024/03/27 10:51:48;;;;;;;5.47;3.20;;;;;;;11.30;45.00;100200.75;1661055;86;21138;-84
2024/03/27 10:54:19;;;;;;;7.08;4.00;;;;;;;11.24;45.78;100202.95;1752536;81;21131;-82
2024/03/27 10:56:47;;;;;;;5.33;3.15;;;;;;;11.20;46.04;100195.34;1757540;82;21380;-80
2024/03/27 10:59:16;;;;;;;5.87;3.37;;;;;;;11.15;45.69;100191.86;1757909;81;21127;-85
2024/03/27 11:01:44;;;;;;;6.87;3.55;;;;;;;11.15;45.87;100188.27;1757305;81;21126;-83
2024/03/27 11:04:15;;;;;;;5.83;3.25;;;;;;;11.17;45.73;100186.16;1757450;82;21154;-82
2024/03/27 11:06:44;;;;;;;7.10;3.80;;;;;;;11.14;44.83;100198.92;1757248;81;21131;-78
2024/03/27 11:09:14;;;;;;;8.20;3.90;;;;;;;11.08;45.09;100189.63;1757290;82;21174;-79
2024/03/27 11:11:43;;;;;;;7.50;4.05;;;;;;;11.05;45.90;100190.88;1734472;82;21051;-75
2024/03/27 11:14:18;;;;;;;7.58;4.53;;;;;;;11.02;46.64;100191.26;1757438;82;21066;-80
2024/03/27 11:16:55;;;;;;;8.08;4.40;;;;;;;10.99;47.00;100182.08;1757159;81;21689;-79
2024/03/27 11:19:33;;;;;;;8.05;3.50;;;;;;;10.97;47.48;100186.08;1757607;81;21020;-77
2024/03/27 11:22:03;;;;;;;6.22;3.75;;;;;;;11.01;47.26;100178.60;1734599;83;21065;-79
2024/03/27 11:24:33;;;;;;;7.67;3.70;;;;;;;11.08;46.30;100175.91;1703670;82;21524;-78
2024/03/27 11:27:04;;;;;;;5.25;3.40;;;;;;;11.13;46.22;100168.44;1726736;83;21057;-78
2024/03/27 11:29:34;;;;;;;7.40;3.72;;;;;;;11.20;46.07;100165.19;1758070;81;21026;-79